Time;durP1;ratioP1;P1;durP2;ratioP2;P2;SDS_P1;SDS_P2;PMS_P1;PMS_P2;Temp;Humidity;BMP_temperature;BMP_pressure;BME280_temperature;BME280_humidity;BME280_pressure;Samples;Min_cycle;Max_cycle;Signal;HPM_P1;HPM_P2
2022/08/03 00:01:24;;;;;;;9.70;3.20;;;;;;;27.08;92.00;101378.59;7395165;19;20121;-57
2022/08/03 00:03:52;;;;;;;8.85;3.67;;;;;;;27.05;91.88;101378.94;7396590;19;20018;-56
2022/08/03 00:06:21;;;;;;;8.40;3.30;;;;;;;27.03;91.82;101374.72;7393935;19;20019;-55
2022/08/03 00:08:50;;;;;;;7.93;2.97;;;;;;;26.97;92.23;101378.88;7392276;19;20007;-54
2022/08/03 00:11:19;;;;;;;8.45;2.95;;;;;;;26.95;91.96;101380.88;7393176;19;20025;-56
2022/08/03 00:13:49;;;;;;;10.18;2.80;;;;;;;26.93;92.17;101380.22;7392717;19;20030;-55
2022/08/03 00:16:20;;;;;;;5.28;2.58;;;;;;;26.87;93.63;101379.00;7392889;19;20022;-54
2022/08/03 00:18:49;;;;;;;10.15;2.78;;;;;;;26.79;94.65;101375.44;7391715;19;20023;-58
2022/08/03 00:21:18;;;;;;;10.98;3.00;;;;;;;26.89;92.97;101371.66;7393933;19;20018;-55
2022/08/03 00:23:47;;;;;;;6.95;2.38;;;;;;;26.89;93.03;101374.34;7392290;19;20014;-54
2022/08/03 00:26:16;;;;;;;7.97;3.13;;;;;;;26.91;92.93;101374.16;7392865;19;20018;-56
2022/08/03 00:28:45;;;;;;;7.60;2.58;;;;;;;26.81;93.99;101387.75;7392068;19;20479;-56
2022/08/03 00:31:14;;;;;;;9.98;3.03;;;;;;;26.22;99.63;101379.44;7393120;19;20014;-55
2022/08/03 00:33:45;;;;;;;10.00;3.65;;;;;;;26.35;98.83;101382.59;7390002;19;20014;-58
2022/08/03 00:36:14;;;;;;;9.88;3.13;;;;;;;26.42;97.49;101375.56;7393798;19;20014;-58
2022/08/03 00:38:43;;;;;;;8.27;2.80;;;;;;;26.31;99.25;101375.00;7391513;19;20478;-55
2022/08/03 00:41:12;;;;;;;10.02;3.10;;;;;;;26.19;100.00;101379.78;7390925;19;20034;-58
2022/08/03 00:43:41;;;;;;;9.80;3.10;;;;;;;26.24;100.00;101378.31;7391937;19;20007;-57
2022/08/03 00:46:10;;;;;;;6.30;2.50;;;;;;;26.35;99.19;101371.84;7390660;19;20034;-57
2022/08/03 00:48:39;;;;;;;8.43;2.95;;;;;;;26.49;98.03;101372.25;7390929;19;20021;-54
2022/08/03 00:51:10;;;;;;;7.65;3.00;;;;;;;26.50;97.49;101371.25;7391919;19;20033;-58
2022/08/03 00:53:39;;;;;;;7.60;3.08;;;;;;;26.49;97.60;101372.25;7395266;19;20021;-58
2022/08/03 00:56:08;;;;;;;7.35;2.78;;;;;;;26.40;98.45;101372.19;7390624;19;20021;-53
2022/08/03 00:58:37;;;;;;;8.10;2.65;;;;;;;26.45;98.14;101362.81;7390883;19;20011;-49
2022/08/03 01:01:06;;;;;;;7.15;2.75;;;;;;;26.30;98.88;101359.88;7392054;19;20024;-49
2022/08/03 01:03:35;;;;;;;5.00;2.72;;;;;;;26.41;97.72;101373.03;7390145;19;20018;-54
2022/08/03 01:06:14;;;;;;;9.57;2.88;;;;;;;26.45;98.22;101366.34;7389301;19;20022;-51
2022/08/03 01:08:48;;;;;;;6.20;2.67;;;;;;;26.23;99.72;101359.66;7390603;19;20081;-55
2022/08/03 01:11:24;;;;;;;6.93;2.90;;;;;;;26.41;98.01;101360.44;7389847;19;20100;-49
2022/08/03 01:14:04;;;;;;;10.57;3.63;;;;;;;26.49;97.34;101361.50;7392018;19;20014;-51
2022/08/03 01:16:39;;;;;;;7.18;2.90;;;;;;;26.53;96.97;101352.94;7390329;19;20014;-53
2022/08/03 01:19:26;;;;;;;8.25;2.97;;;;;;;26.55;97.02;101360.84;7391389;19;20351;-51
2022/08/03 01:22:11;;;;;;;9.38;3.60;;;;;;;26.49;97.89;101359.63;7390090;19;20026;-54
2022/08/03 01:24:52;;;;;;;8.25;3.28;;;;;;;26.13;100.00;101346.31;7388370;19;20014;-51
2022/08/03 01:27:24;;;;;;;9.93;3.75;;;;;;;25.82;100.00;101348.56;7394401;19;20763;-54
2022/08/03 01:30:01;;;;;;;9.00;3.55;;;;;;;25.86;100.00;101347.25;7390088;19;20018;-52
2022/08/03 01:32:48;;;;;;;9.20;3.30;;;;;;;26.04;100.00;101349.97;7389850;19;20014;-54
2022/08/03 01:35:21;;;;;;;10.50;3.38;;;;;;;26.09;100.00;101353.00;7389706;19;20022;-53
2022/08/03 01:37:54;;;;;;;9.80;3.78;;;;;;;26.20;100.00;101346.53;7390869;19;20041;-56
2022/08/03 01:40:26;;;;;;;12.30;3.60;;;;;;;26.14;100.00;101348.00;7389287;19;20015;-55
2022/08/03 01:42:57;;;;;;;9.48;3.50;;;;;;;26.16;100.00;101354.06;7391763;19;20014;-55
2022/08/03 01:45:29;;;;;;;11.82;4.03;;;;;;;26.15;100.00;101349.72;7388077;19;20119;-55
2022/08/03 01:48:00;;;;;;;8.73;3.50;;;;;;;26.16;100.00;101350.53;7388889;19;20026;-53
2022/08/03 01:50:33;;;;;;;8.80;3.30;;;;;;;26.13;100.00;101342.81;7388605;19;20014;-54
2022/08/03 01:53:02;;;;;;;;;;;;;;;26.08;100.00;101346.81;7388671;19;20097;-54
2022/08/03 01:55:34;;;;;;;9.52;3.65;;;;;;;26.10;100.00;101343.94;7389452;19;19915;-55
2022/08/03 01:58:06;;;;;;;8.33;3.43;;;;;;;25.81;100.00;101341.53;7389035;19;20011;-54
2022/08/03 02:00:40;;;;;;;9.68;3.60;;;;;;;25.93;100.00;101339.44;7388089;19;20018;-55
2022/08/03 02:03:11;;;;;;;11.18;3.22;;;;;;;25.97;100.00;101341.66;7387760;19;20029;-54
2022/08/03 02:05:41;;;;;;;9.57;3.25;;;;;;;25.89;100.00;101342.44;7386308;19;20041;-54
2022/08/03 02:08:14;;;;;;;8.77;3.60;;;;;;;25.90;100.00;101335.22;7388426;19;20011;-55
2022/08/03 02:10:45;;;;;;;9.27;3.53;;;;;;;25.96;100.00;101334.59;7388431;19;20031;-55
2022/08/03 02:13:16;;;;;;;6.97;3.45;;;;;;;25.97;100.00;101332.75;7387258;19;20015;-55
2022/08/03 02:15:48;;;;;;;7.55;3.00;;;;;;;25.93;100.00;101336.75;7391802;19;20360;-55
2022/08/03 02:18:19;;;;;;;10.68;3.22;;;;;;;25.94;100.00;101338.44;7387711;19;20023;-57
2022/08/03 02:20:49;;;;;;;8.18;3.42;;;;;;;25.93;100.00;101334.91;7387661;19;20017;-52
2022/08/03 02:23:18;;;;;;;9.63;3.22;;;;;;;25.94;100.00;101335.75;7386580;19;20030;-51
2022/08/03 02:25:52;;;;;;;9.88;4.30;;;;;;;25.95;100.00;101342.78;7387317;19;20018;-49
2022/08/03 02:28:23;;;;;;;7.72;3.28;;;;;;;25.99;100.00;101339.66;7387510;19;20015;-53
2022/08/03 02:30:57;;;;;;;10.75;3.85;;;;;;;25.96;100.00;101337.25;7389368;19;20022;-55
2022/08/03 02:33:31;;;;;;;8.35;3.50;;;;;;;25.95;100.00;101337.44;7386445;19;20057;-54
2022/08/03 02:36:02;;;;;;;9.18;3.70;;;;;;;25.83;100.00;101328.78;7388086;19;20512;-54
2022/08/03 02:38:35;;;;;;;9.35;3.30;;;;;;;25.89;100.00;101337.06;7387822;19;20023;-58
2022/08/03 02:41:06;;;;;;;;;;;;;;;25.93;100.00;101336.75;7388931;19;20021;-57
2022/08/03 02:43:37;;;;;;;12.05;3.75;;;;;;;25.85;100.00;101332.19;7385921;19;19910;-56
2022/08/03 02:46:10;;;;;;;11.25;4.15;;;;;;;25.83;100.00;101326.09;7386463;19;20014;-57
2022/08/03 02:48:42;;;;;;;12.50;5.22;;;;;;;25.77;100.00;101324.06;7391458;19;20038;-58
2022/08/03 02:51:12;;;;;;;10.02;3.80;;;;;;;25.75;100.00;101324.22;7388491;19;20014;-58
2022/08/03 02:53:42;;;;;;;8.00;3.50;;;;;;;25.76;100.00;101322.34;7388148;19;20021;-53
2022/08/03 02:56:11;;;;;;;10.68;3.90;;;;;;;25.77;100.00;101316.81;7388750;19;20118;-51
2022/08/03 02:58:42;;;;;;;8.23;3.17;;;;;;;25.70;100.00;101311.25;7392471;19;20026;-51
2022/08/03 03:01:14;;;;;;;8.13;3.00;;;;;;;25.72;100.00;101321.84;7395713;19;20343;-49
2022/08/03 03:03:44;;;;;;;11.05;3.63;;;;;;;25.71;100.00;101317.47;7395605;19;20364;-58
2022/08/03 03:06:14;;;;;;;7.95;3.25;;;;;;;25.67;100.00;101308.84;7393478;19;20011;-56
2022/08/03 03:08:44;;;;;;;7.68;3.53;;;;;;;25.70;100.00;101315.75;7394635;19;20014;-57
2022/08/03 03:11:15;;;;;;;9.45;3.75;;;;;;;25.72;100.00;101313.78;7395038;19;20034;-53
2022/08/03 03:13:44;;;;;;;10.50;3.95;;;;;;;25.73;100.00;101318.13;7394723;19;20010;-55
2022/08/03 03:16:17;;;;;;;10.60;3.63;;;;;;;25.73;100.00;101318.13;7394302;19;20025;-58
2022/08/03 03:18:48;;;;;;;;;;;;;;;25.78;100.00;101317.69;7394129;19;20015;-58
2022/08/03 03:21:21;;;;;;;9.57;3.67;;;;;;;25.68;100.00;101315.91;7396958;19;19915;-58
2022/08/03 03:23:50;;;;;;;11.23;4.20;;;;;;;25.68;100.00;101320.47;7394422;19;20025;-57
2022/08/03 03:26:20;;;;;;;11.70;3.83;;;;;;;25.65;100.00;101316.25;7392795;19;20350;-58
2022/08/03 03:28:49;;;;;;;9.43;4.25;;;;;;;25.62;100.00;101313.88;7393177;19;20453;-56
2022/08/03 03:31:21;;;;;;;8.30;3.67;;;;;;;25.64;100.00;101305.66;7393896;19;20018;-56
2022/08/03 03:33:50;;;;;;;6.53;3.25;;;;;;;25.80;100.00;101313.81;7396016;19;20003;-58
2022/08/03 03:36:20;;;;;;;9.38;3.70;;;;;;;25.66;100.00;101300.97;7398459;19;20015;-57
2022/08/03 03:38:49;;;;;;;7.10;3.40;;;;;;;25.79;100.00;101304.09;7392939;19;20011;-54
2022/08/03 03:41:18;;;;;;;17.88;4.72;;;;;;;25.53;100.00;101310.28;7395801;19;20010;-60
2022/08/03 03:43:47;;;;;;;12.85;4.55;;;;;;;25.61;100.00;101309.50;7393501;19;20010;-56
2022/08/03 03:46:16;;;;;;;12.43;4.15;;;;;;;25.67;100.00;101314.22;7392420;19;20020;-57
2022/08/03 03:48:48;;;;;;;11.45;4.40;;;;;;;25.66;100.00;101317.94;7397023;19;20014;-56
2022/08/03 03:51:18;;;;;;;11.55;4.18;;;;;;;25.73;100.00;101315.44;7393553;19;20026;-58
2022/08/03 03:53:57;;;;;;;9.38;4.63;;;;;;;25.68;100.00;101312.41;7393000;19;20451;-58
2022/08/03 03:56:26;;;;;;;8.48;4.28;;;;;;;25.65;100.00;101310.03;7392863;19;20467;-58
2022/08/03 03:58:56;;;;;;;10.25;4.13;;;;;;;25.60;100.00;101304.28;7391989;19;20021;-58
2022/08/03 04:01:25;;;;;;;11.38;4.75;;;;;;;25.58;100.00;101309.81;7392910;19;20011;-56
2022/08/03 04:03:56;;;;;;;11.50;4.32;;;;;;;25.44;100.00;101318.41;7395033;19;20019;-56
2022/08/03 04:11:53;;;;;;;10.05;4.43;;;;;;;25.52;100.00;101323.84;7392353;19;20021;-56
2022/08/03 04:14:26;;;;;;;14.18;4.93;;;;;;;25.55;100.00;101323.53;7393417;19;20025;-55
2022/08/03 04:17:00;;;;;;;8.38;4.75;;;;;;;25.43;100.00;101320.22;7393169;19;20014;-57
2022/08/03 04:19:33;;;;;;;10.48;4.72;;;;;;;25.46;100.00;101313.72;7391800;19;20014;-57
2022/08/03 04:22:07;;;;;;;12.80;5.10;;;;;;;25.47;100.00;101316.22;7396592;19;20441;-55
2022/08/03 04:24:39;;;;;;;14.52;5.10;;;;;;;25.47;100.00;101318.91;7392915;19;20018;-56
2022/08/03 04:27:11;;;;;;;8.35;5.03;;;;;;;25.50;100.00;101318.59;7390893;19;20011;-59
2022/08/03 04:29:43;;;;;;;9.88;4.60;;;;;;;25.50;100.00;101325.81;7392226;19;20010;-58
2022/08/03 04:32:13;;;;;;;12.82;5.68;;;;;;;25.48;100.00;101323.28;7391371;19;20021;-58
2022/08/03 04:34:45;;;;;;;14.23;6.30;;;;;;;25.20;100.00;101317.97;7393097;19;20014;-57
2022/08/03 04:37:20;;;;;;;13.53;6.37;;;;;;;25.19;100.00;101318.13;7394626;19;20015;-57
2022/08/03 04:39:51;;;;;;;12.35;6.55;;;;;;;25.03;100.00;101314.28;7391841;19;20501;-55
2022/08/03 04:42:22;;;;;;;12.18;6.43;;;;;;;25.21;100.00;101313.44;7391489;19;20108;-59
2022/08/03 04:44:53;;;;;;;13.45;6.60;;;;;;;25.17;100.00;101314.75;7392601;19;20547;-58
2022/08/03 04:47:22;;;;;;;12.80;5.93;;;;;;;25.21;100.00;101319.63;7390339;19;20034;-57
2022/08/03 04:49:54;;;;;;;16.15;7.38;;;;;;;25.11;100.00;101318.88;7391202;19;20017;-57
2022/08/03 04:52:23;;;;;;;15.33;6.87;;;;;;;24.99;100.00;101320.94;7390575;19;20022;-53
2022/08/03 04:54:52;;;;;;;19.13;6.65;;;;;;;25.25;100.00;101330.94;7396302;19;20010;-57
2022/08/03 04:57:21;;;;;;;11.55;6.75;;;;;;;25.32;100.00;101325.84;7391325;19;20017;-56
2022/08/03 04:59:53;;;;;;;14.82;6.10;;;;;;;25.23;100.00;101327.53;7391255;19;20474;-56
2022/08/03 05:02:22;;;;;;;15.07;6.05;;;;;;;24.98;100.00;101329.13;7391042;19;20496;-57
2022/08/03 05:04:53;;;;;;;17.15;7.55;;;;;;;25.00;100.00;101335.16;7391786;19;20377;-57
2022/08/03 05:07:22;;;;;;;13.30;7.70;;;;;;;24.99;100.00;101326.28;7390068;19;20021;-56
2022/08/03 05:09:51;;;;;;;15.63;7.53;;;;;;;24.97;100.00;101335.47;7393382;19;20332;-53
2022/08/03 05:12:20;;;;;;;13.68;7.10;;;;;;;24.97;100.00;101343.50;7390776;19;20018;-57
2022/08/03 05:14:49;;;;;;;15.43;8.10;;;;;;;24.96;100.00;101348.03;7391687;19;20011;-56
2022/08/03 05:17:18;;;;;;;13.55;7.32;;;;;;;25.04;100.00;101342.78;7390550;19;20014;-52
2022/08/03 05:19:47;;;;;;;15.45;7.20;;;;;;;25.09;100.00;101344.16;7389041;19;20379;-57
2022/08/03 05:22:18;;;;;;;17.17;7.43;;;;;;;25.06;100.00;101339.94;7390882;19;20020;-55
2022/08/03 05:24:47;;;;;;;15.10;7.30;;;;;;;25.14;100.00;101342.69;7390869;19;20022;-56
2022/08/03 05:27:18;;;;;;;14.35;7.20;;;;;;;25.12;100.00;101344.69;7393271;19;20011;-56
2022/08/03 05:29:48;;;;;;;13.55;7.70;;;;;;;25.10;100.00;101343.16;7390544;19;20007;-56
2022/08/03 05:32:17;;;;;;;12.75;7.50;;;;;;;25.09;100.00;101350.38;7392894;19;20021;-58
2022/08/03 05:34:46;;;;;;;14.75;7.05;;;;;;;25.00;100.00;101352.13;7390724;19;20014;-58
2022/08/03 05:37:18;;;;;;;12.50;7.65;;;;;;;24.85;100.00;101349.06;7390389;19;20111;-57
2022/08/03 05:39:47;;;;;;;13.85;6.80;;;;;;;24.82;100.00;101341.34;7390159;19;20037;-56
2022/08/03 05:42:17;;;;;;;15.32;7.43;;;;;;;24.87;100.00;101341.75;7390094;19;20015;-59
2022/08/03 05:44:46;;;;;;;16.10;8.05;;;;;;;25.00;100.00;101353.94;7390954;19;20019;-57
2022/08/03 05:47:14;;;;;;;9.98;6.28;;;;;;;25.32;100.00;101349.97;7388833;19;20010;-56
2022/08/03 05:49:43;;;;;;;14.13;7.18;;;;;;;25.30;100.00;101343.88;7389519;19;20015;-59
2022/08/03 05:52:12;;;;;;;17.48;7.57;;;;;;;25.38;100.00;101344.81;7389053;19;20010;-54
2022/08/03 05:54:43;;;;;;;17.10;6.97;;;;;;;25.43;100.00;101351.59;7390484;19;20018;-56
2022/08/03 05:57:12;;;;;;;17.40;6.95;;;;;;;25.45;100.00;101347.75;7398773;19;20019;-59
2022/08/03 05:59:41;;;;;;;13.20;6.07;;;;;;;25.18;100.00;101357.50;7402813;19;20331;-57
2022/08/03 06:02:10;;;;;;;18.02;6.75;;;;;;;25.03;100.00;101359.84;7388765;19;20022;-57
2022/08/03 06:04:39;;;;;;;12.65;6.47;;;;;;;25.55;100.00;101358.41;7390406;19;20011;-53
2022/08/03 06:07:08;;;;;;;11.20;6.38;;;;;;;25.60;100.00;101353.41;7388626;19;20014;-52
2022/08/03 06:09:37;;;;;;;14.32;6.15;;;;;;;25.80;100.00;101361.31;7389551;19;20007;-56
2022/08/03 06:12:09;;;;;;;12.75;5.78;;;;;;;25.57;100.00;101359.09;7389103;19;20451;-55
2022/08/03 06:14:37;;;;;;;10.40;5.33;;;;;;;25.73;100.00;101363.75;7389980;19;20409;-54
2022/08/03 06:17:07;;;;;;;14.60;5.60;;;;;;;25.83;100.00;101363.69;7393961;19;20021;-50
2022/08/03 06:19:35;;;;;;;9.93;5.00;;;;;;;25.00;100.00;101359.31;7388605;19;20011;-53
2022/08/03 06:22:05;;;;;;;10.38;4.88;;;;;;;25.17;100.00;101366.53;7388296;19;20018;-54
2022/08/03 06:24:34;;;;;;;9.02;4.85;;;;;;;25.19;100.00;101361.88;7389893;19;20401;-52
2022/08/03 06:27:03;;;;;;;16.10;5.85;;;;;;;25.42;100.00;101366.00;7388959;19;20333;-51
2022/08/03 06:29:35;;;;;;;10.95;5.13;;;;;;;25.25;100.00;101364.97;7388618;19;20023;-55
2022/08/03 06:32:04;;;;;;;11.80;4.93;;;;;;;25.59;100.00;101367.84;7390834;19;20014;-54
2022/08/03 06:34:32;;;;;;;11.50;5.10;;;;;;;25.65;100.00;101377.97;7396971;19;20007;-55
2022/08/03 06:37:01;;;;;;;11.63;5.03;;;;;;;25.67;100.00;101370.59;7396974;19;20025;-55
2022/08/03 06:39:31;;;;;;;14.68;5.28;;;;;;;25.65;100.00;101369.91;7396748;19;20053;-50
2022/08/03 06:41:59;;;;;;;14.27;5.00;;;;;;;25.41;100.00;101370.53;7395682;19;20104;-53
2022/08/03 06:44:28;;;;;;;14.00;5.05;;;;;;;25.98;100.00;101382.78;7396748;19;20014;-57
2022/08/03 06:47:00;;;;;;;15.43;5.43;;;;;;;25.93;100.00;101377.03;7395367;19;20019;-56
2022/08/03 06:49:29;;;;;;;13.05;5.15;;;;;;;26.12;100.00;101381.41;7398793;19;20018;-58
2022/08/03 06:51:58;;;;;;;14.27;5.00;;;;;;;25.85;100.00;101378.66;7395990;19;20021;-56
2022/08/03 06:54:27;;;;;;;12.70;5.13;;;;;;;25.72;100.00;101378.22;7396488;19;20014;-54
2022/08/03 06:56:56;;;;;;;12.88;4.28;;;;;;;25.91;100.00;101378.03;7396500;19;20025;-56
2022/08/03 06:59:25;;;;;;;14.02;5.13;;;;;;;25.80;99.73;101383.63;7395501;19;20519;-53
2022/08/03 07:01:53;;;;;;;14.88;5.07;;;;;;;25.90;99.66;101373.66;7395815;19;20021;-56
2022/08/03 07:04:25;;;;;;;15.80;4.95;;;;;;;25.79;100.00;101390.03;7396304;19;20010;-56
2022/08/03 07:06:54;;;;;;;12.45;4.78;;;;;;;25.21;100.00;101381.34;7399584;19;20014;-56
2022/08/03 07:09:25;;;;;;;17.63;4.50;;;;;;;25.63;100.00;101376.44;7396355;19;20361;-53
2022/08/03 07:11:54;;;;;;;15.88;4.68;;;;;;;25.82;100.00;101381.66;7395488;19;20022;-54
2022/08/03 07:14:23;;;;;;;17.33;5.25;;;;;;;25.90;99.44;101376.34;7396472;19;20018;-55
2022/08/03 07:16:52;;;;;;;18.00;5.22;;;;;;;25.88;100.00;101383.72;7396265;19;20029;-58
2022/08/03 07:19:20;;;;;;;18.55;4.90;;;;;;;26.04;100.00;101384.88;7396094;19;20468;-59
2022/08/03 07:21:52;;;;;;;15.02;4.68;;;;;;;25.83;99.36;101383.31;7397587;19;20671;-58
2022/08/03 07:24:21;;;;;;;12.40;4.68;;;;;;;25.62;100.00;101382.78;7398672;19;20013;-58
2022/08/03 07:26:50;;;;;;;13.98;4.60;;;;;;;25.75;100.00;101391.31;7395927;19;20010;-57
2022/08/03 07:29:19;;;;;;;14.15;4.30;;;;;;;25.77;100.00;101392.00;7395886;19;20338;-59
2022/08/03 07:31:47;;;;;;;14.02;4.22;;;;;;;25.80;100.00;101388.16;7395385;19;20019;-57
2022/08/03 07:34:17;;;;;;;12.88;4.00;;;;;;;26.04;97.42;101385.72;7396560;19;20021;-53
2022/08/03 07:36:46;;;;;;;11.57;3.80;;;;;;;26.53;95.39;101389.75;7395246;19;20336;-50
2022/08/03 07:39:17;;;;;;;15.05;4.50;;;;;;;26.58;92.93;101393.63;7399425;19;20014;-54
2022/08/03 07:41:49;;;;;;;12.60;3.78;;;;;;;26.62;92.27;101388.75;7396508;19;20801;-52
2022/08/03 07:44:17;;;;;;;18.80;4.38;;;;;;;26.37;92.66;101387.78;7395405;19;20015;-56
2022/08/03 07:46:46;;;;;;;21.50;3.95;;;;;;;26.61;92.63;101395.16;7394762;19;20677;-57
2022/08/03 07:49:16;;;;;;;12.90;3.50;;;;;;;26.51;92.39;101394.44;7394983;19;20117;-50
2022/08/03 07:52:46;;;;;;;15.57;3.35;;;;;;;26.71;93.26;101395.09;7395926;19;20404;-53
2022/08/03 07:54:36;;;;;;;10.48;3.17;;;;;;;26.87;90.22;101402.38;7398946;19;20047;-52
2022/08/03 07:57:05;;;;;;;15.15;4.13;;;;;;;26.91;90.05;101393.81;7405429;19;20055;-54
2022/08/03 07:59:34;;;;;;;13.18;3.25;;;;;;;26.51;91.56;101406.03;7410610;19;20340;-54
2022/08/03 08:02:03;;;;;;;13.27;3.28;;;;;;;26.59;91.84;101386.41;7393925;19;20014;-57
2022/08/03 08:04:32;;;;;;;13.05;3.50;;;;;;;26.82;89.67;101394.78;7394691;19;20010;-53
2022/08/03 08:07:01;;;;;;;16.80;3.90;;;;;;;27.19;89.81;101390.88;7393771;19;20049;-55
2022/08/03 08:09:30;;;;;;;15.30;3.85;;;;;;;27.54;84.85;101391.69;7393588;19;20117;-57
2022/08/03 08:12:01;;;;;;;13.40;3.15;;;;;;;27.63;83.71;101392.53;7396143;19;20022;-57
2022/08/03 08:14:31;;;;;;;16.20;3.72;;;;;;;27.76;83.90;101392.88;7394480;19;20014;-53
2022/08/03 08:17:00;;;;;;;14.13;3.42;;;;;;;27.74;86.66;101396.75;7393985;19;20049;-55
2022/08/03 08:19:29;;;;;;;15.50;3.90;;;;;;;27.57;82.61;101387.84;7391493;19;20027;-56
2022/08/03 08:21:57;;;;;;;15.38;3.53;;;;;;;27.25;83.62;101392.94;7392889;19;20015;-58
2022/08/03 08:24:29;;;;;;;14.32;3.50;;;;;;;27.36;81.42;101389.13;7394018;19;20021;-57
2022/08/03 08:26:58;;;;;;;13.70;3.35;;;;;;;27.32;82.82;101392.28;7392791;19;20025;-58
2022/08/03 08:29:30;;;;;;;16.80;3.63;;;;;;;27.54;82.94;101391.69;7396687;19;20014;-52
2022/08/03 08:31:59;;;;;;;10.90;3.75;;;;;;;27.70;82.65;101398.13;7393256;19;20022;-57
2022/08/03 08:34:28;;;;;;;19.02;3.85;;;;;;;27.44;78.97;101399.09;7397138;19;20018;-67
2022/08/03 08:36:57;;;;;;;13.00;3.70;;;;;;;27.56;80.66;101394.22;7399163;19;20411;-65
2022/08/03 08:39:26;;;;;;;15.93;3.92;;;;;;;27.70;78.47;101387.34;7395211;19;20109;-64
2022/08/03 08:41:55;;;;;;;14.65;3.40;;;;;;;27.73;78.13;101395.91;7395510;19;20040;-65
2022/08/03 08:44:24;;;;;;;14.38;4.28;;;;;;;27.88;77.45;101393.41;7394346;19;20023;-62
2022/08/03 08:46:59;;;;;;;15.73;3.55;;;;;;;27.66;79.64;101386.81;7395199;19;20018;-63
2022/08/03 08:49:29;;;;;;;15.57;3.50;;;;;;;27.84;77.09;101389.38;7394735;19;20099;-60
2022/08/03 08:52:01;;;;;;;15.60;4.10;;;;;;;28.06;79.00;101395.94;7395115;19;20542;-61
2022/08/03 08:54:32;;;;;;;17.42;3.40;;;;;;;28.44;76.62;101403.47;7391885;19;20010;-58
2022/08/03 08:57:04;;;;;;;13.88;3.85;;;;;;;28.10;72.42;101401.84;7394948;19;20569;-65
2022/08/03 08:59:35;;;;;;;18.52;3.63;;;;;;;28.39;74.94;101401.31;7396118;19;20099;-65
2022/08/03 09:02:06;;;;;;;14.95;3.42;;;;;;;28.05;72.09;101410.41;7398683;19;20010;-66
2022/08/03 09:04:35;;;;;;;19.48;4.30;;;;;;;28.21;73.91;101401.50;7394595;19;20025;-63
2022/08/03 09:07:04;;;;;;;15.25;3.33;;;;;;;28.30;72.45;101399.66;7395025;19;20470;-63
2022/08/03 09:09:33;;;;;;;17.15;3.20;;;;;;;28.53;70.40;101393.50;7396232;19;20042;-63
2022/08/03 09:12:02;;;;;;;16.42;3.30;;;;;;;28.45;71.11;101394.38;7396029;19;20006;-62
2022/08/03 09:14:31;;;;;;;14.93;4.00;;;;;;;28.49;70.72;101401.94;7394236;19;20022;-64
2022/08/03 09:17:03;;;;;;;15.07;3.60;;;;;;;28.51;68.99;101400.94;7396002;19;20045;-64
2022/08/03 09:19:36;;;;;;;18.85;4.10;;;;;;;28.45;69.96;101405.16;7395418;19;20071;-64
2022/08/03 09:22:16;;;;;;;18.02;3.28;;;;;;;28.67;69.92;101392.84;7395602;19;20911;-62
2022/08/03 09:24:57;;;;;;;19.25;3.72;;;;;;;28.38;68.61;101388.00;7394305;19;20014;-64
2022/08/03 09:27:26;;;;;;;13.48;3.65;;;;;;;28.50;70.91;101389.31;7393883;19;20022;-62
2022/08/03 09:29:56;;;;;;;18.27;3.53;;;;;;;28.64;71.14;101391.34;7395337;19;20015;-63
2022/08/03 09:32:26;;;;;;;16.05;3.88;;;;;;;28.94;67.52;101398.81;7394949;19;20348;-62
2022/08/03 09:35:05;;;;;;;19.60;4.13;;;;;;;28.77;65.77;101387.22;7396844;19;20026;-63
2022/08/03 09:37:34;;;;;;;18.90;3.92;;;;;;;29.09;64.74;101391.66;7394663;19;20014;-65
2022/08/03 09:40:03;;;;;;;17.80;3.20;;;;;;;29.47;64.34;101396.34;7393945;19;20015;-63
2022/08/03 09:42:33;;;;;;;17.80;3.70;;;;;;;29.44;62.54;101391.31;7393814;19;20026;-62
2022/08/03 09:45:03;;;;;;;17.17;3.65;;;;;;;29.52;64.22;101402.06;7394579;19;20053;-62
2022/08/03 09:47:35;;;;;;;13.18;3.22;;;;;;;29.69;63.40;101398.22;7394172;19;20003;-63
2022/08/03 09:50:08;;;;;;;14.93;3.55;;;;;;;29.27;63.33;101390.56;7391935;19;20044;-64
2022/08/03 09:52:39;;;;;;;20.25;4.07;;;;;;;29.27;64.84;101399.53;7397871;19;20010;-65
2022/08/03 09:55:11;;;;;;;15.32;3.53;;;;;;;29.53;63.11;101392.97;7393721;19;20015;-64
2022/08/03 09:57:45;;;;;;;;;;;;;;;29.81;61.63;101400.50;7371393;19;20019;-62
2022/08/03 10:00:14;;;;;;;;;;;;;;;30.10;60.93;101399.75;7392253;19;19922;-62
2022/08/03 10:02:44;;;;;;;16.65;3.53;;;;;;;29.81;60.47;101395.94;7392464;19;19918;-63
2022/08/03 10:05:16;;;;;;;14.38;3.30;;;;;;;30.11;61.12;101406.03;7392152;19;20018;-65
2022/08/03 10:07:46;;;;;;;14.90;3.83;;;;;;;30.27;60.77;101400.44;7391799;19;20014;-63
2022/08/03 10:10:16;;;;;;;16.10;3.50;;;;;;;29.84;60.14;101398.28;7392895;19;20021;-64
2022/08/03 10:12:47;;;;;;;16.42;3.13;;;;;;;29.91;59.25;101393.03;7395121;19;20030;-63
2022/08/03 10:15:16;;;;;;;16.63;3.55;;;;;;;29.92;58.36;101399.25;7394215;19;20471;-63
2022/08/03 10:17:45;;;;;;;15.30;3.90;;;;;;;29.64;60.92;101392.50;7392438;19;20014;-64
2022/08/03 10:20:16;;;;;;;16.33;3.15;;;;;;;29.90;59.11;101394.03;7392138;19;20026;-63
2022/08/03 10:22:45;;;;;;;16.65;3.42;;;;;;;30.49;57.03;101397.88;7393823;19;20452;-63
2022/08/03 10:25:17;;;;;;;14.25;3.20;;;;;;;30.24;54.76;101394.59;7397862;19;20403;-63
2022/08/03 10:27:53;;;;;;;15.50;3.60;;;;;;;30.24;56.19;101400.00;7393499;19;20018;-63
2022/08/03 10:30:23;;;;;;;14.80;3.33;;;;;;;30.33;55.55;101393.47;7394839;19;20289;-64
2022/08/03 10:32:56;;;;;;;16.95;3.33;;;;;;;30.51;55.20;101391.28;7393246;19;20019;-64
2022/08/03 10:35:28;;;;;;;20.38;3.30;;;;;;;30.43;57.09;101387.81;7394044;19;20021;-65
2022/08/03 10:38:00;;;;;;;16.42;3.00;;;;;;;30.55;55.88;101378.22;7392898;19;20057;-64
2022/08/03 10:40:31;;;;;;;14.88;3.58;;;;;;;30.95;53.93;101384.16;7393580;19;20491;-63
2022/08/03 10:43:08;;;;;;;15.35;3.88;;;;;;;30.51;53.02;101390.44;7392038;19;20019;-66
2022/08/03 10:45:42;;;;;;;14.30;3.10;;;;;;;30.61;54.09;101380.19;7393637;19;20010;-63
2022/08/03 10:48:12;;;;;;;17.55;3.47;;;;;;;30.60;52.90;101380.38;7393584;19;20017;-64
2022/08/03 10:50:44;;;;;;;15.77;2.95;;;;;;;30.87;51.04;101381.56;7395400;19;20494;-65
2022/08/03 10:53:13;;;;;;;10.93;2.72;;;;;;;30.84;51.69;101374.66;7394554;19;20010;-62
2022/08/03 10:58:53;;;;;;;15.27;2.88;;;;;;;31.32;49.70;101363.38;7397337;19;20006;-64
2022/08/03 11:01:52;;;;;;;17.80;4.93;;;;;;;31.77;50.19;101360.50;7394233;19;20377;-63
2022/08/03 11:04:23;;;;;;;15.90;2.65;;;;;;;31.58;46.55;101359.28;7393376;19;20015;-62
2022/08/03 11:07:22;;;;;;;17.60;3.42;;;;;;;31.44;46.87;101352.88;7396655;19;20039;-65
2022/08/03 11:09:53;;;;;;;12.32;2.85;;;;;;;31.05;47.58;101348.72;7395370;19;20010;-64
2022/08/03 11:12:26;;;;;;;15.75;3.25;;;;;;;31.00;47.36;101343.84;7397735;19;20018;-65
2022/08/03 11:14:56;;;;;;;13.65;2.83;;;;;;;31.55;47.12;101344.22;7397305;19;20010;-64
2022/08/03 11:17:25;;;;;;;15.02;2.90;;;;;;;31.82;46.61;101346.34;7391036;19;20018;-64
2022/08/03 11:19:55;;;;;;;10.55;3.05;;;;;;;31.77;46.81;101346.94;7397055;19;20703;-63
2022/08/03 11:22:47;;;;;;;17.38;2.85;;;;;;;31.80;46.22;101348.44;7397979;19;20021;-65
2022/08/03 11:25:16;;;;;;;14.43;2.58;;;;;;;32.35;45.11;101357.59;7396545;19;20011;-66
2022/08/03 11:27:45;;;;;;;12.45;3.03;;;;;;;32.55;42.49;101356.88;7397555;19;20014;-64
2022/08/03 11:30:27;;;;;;;11.70;2.83;;;;;;;32.39;43.73;101344.47;7397293;19;20017;-67
2022/08/03 11:32:59;;;;;;;;;;;;;;;33.26;41.59;101350.31;7399731;19;20014;-64
2022/08/03 11:35:30;;;;;;;13.77;3.17;;;;;;;32.80;40.29;101353.66;7397526;19;20365;-64
2022/08/03 11:38:23;;;;;;;13.48;2.47;;;;;;;33.06;40.15;101340.19;7396477;19;20622;-65
2022/08/03 11:40:52;;;;;;;;;;;;;;;33.48;38.99;101352.84;7397410;19;20007;-65
2022/08/03 11:43:46;;;;;;;10.88;2.42;;;;;;;33.78;39.32;101350.56;7396032;19;19926;-64